createdAt,value
2018-09-29T00:01:00.638Z,1.90
2018-09-29T00:03:29.967Z,2.03
2018-09-29T00:05:59.225Z,1.90
2018-09-29T00:08:28.488Z,2.13
2018-09-29T00:10:57.774Z,1.87
2018-09-29T00:13:27.054Z,2.43
2018-09-29T00:15:56.313Z,3.40
2018-09-29T00:18:25.612Z,1.57
2018-09-29T00:20:54.896Z,2.47
2018-09-29T00:23:24.171Z,1.87
2018-09-29T00:25:53.472Z,2.17
2018-09-29T00:28:22.764Z,2.17
2018-09-29T00:30:52.045Z,2.30
2018-09-29T00:33:21.305Z,2.40
2018-09-29T00:35:50.641Z,3.60
2018-09-29T00:38:19.895Z,3.10
2018-09-29T00:40:49.201Z,1.70
2018-09-29T00:43:18.486Z,2.20
2018-09-29T00:45:47.746Z,2.80
2018-09-29T00:48:16.987Z,1.57
2018-09-29T00:50:46.248Z,3.00
2018-09-29T00:53:15.468Z,1.50
2018-09-29T00:55:44.748Z,2.20
2018-09-29T00:58:14.010Z,3.03
2018-09-29T01:00:43.276Z,1.80
2018-09-29T01:03:12.514Z,2.00
2018-09-29T01:05:41.822Z,2.37
2018-09-29T01:08:11.073Z,2.37
2018-09-29T01:10:40.349Z,2.53
2018-09-29T01:13:09.612Z,1.93
2018-09-29T01:15:38.966Z,1.60
2018-09-29T01:18:08.562Z,2.83
2018-09-29T01:20:37.824Z,1.53
2018-09-29T01:23:07.075Z,1.60
2018-09-29T01:25:36.352Z,1.97
2018-09-29T01:28:05.588Z,4.67
2018-09-29T01:30:34.873Z,1.83
2018-09-29T01:33:04.085Z,2.30
2018-09-29T01:35:33.399Z,1.80
2018-09-29T01:38:02.657Z,2.07
2018-09-29T01:40:31.919Z,2.10
2018-09-29T01:43:01.192Z,2.00
2018-09-29T01:45:30.471Z,2.30
2018-09-29T01:47:59.731Z,2.03
2018-09-29T01:50:29.105Z,2.60
2018-09-29T01:52:58.391Z,2.57
2018-09-29T01:55:27.643Z,1.97
2018-09-29T01:57:56.999Z,2.23
2018-09-29T02:00:26.254Z,2.10
2018-09-29T02:02:55.617Z,1.77
2018-09-29T02:05:24.926Z,1.80
2018-09-29T02:07:54.287Z,1.87
2018-09-29T02:10:23.566Z,2.03
2018-09-29T02:12:52.866Z,2.37
2018-09-29T02:15:22.147Z,1.93
2018-09-29T02:17:51.430Z,2.23
2018-09-29T02:20:20.698Z,1.80
2018-09-29T02:22:49.994Z,2.43
2018-09-29T02:25:19.402Z,2.63
2018-09-29T02:27:48.684Z,2.10
2018-09-29T02:30:17.955Z,1.70
2018-09-29T02:32:47.301Z,1.93
2018-09-29T02:35:16.563Z,2.40
2018-09-29T02:37:45.837Z,2.50
2018-09-29T02:40:15.121Z,1.93
2018-09-29T02:42:44.425Z,2.27
2018-09-29T02:45:13.675Z,2.33
2018-09-29T02:47:42.969Z,1.83
2018-09-29T02:50:12.221Z,2.00
2018-09-29T02:52:41.510Z,1.93
2018-09-29T02:55:11.807Z,2.30
2018-09-29T02:57:41.108Z,1.77
2018-09-29T03:00:10.347Z,1.70
2018-09-29T03:02:39.645Z,1.80
2018-09-29T03:05:08.911Z,1.80
2018-09-29T03:07:38.169Z,1.67
2018-09-29T03:10:07.415Z,2.10
2018-09-29T03:12:36.675Z,1.83
2018-09-29T03:15:06.006Z,2.17
2018-09-29T03:17:35.333Z,1.70
2018-09-29T03:20:04.595Z,1.93
2018-09-29T03:22:33.855Z,1.50
2018-09-29T03:25:03.121Z,1.97
2018-09-29T03:27:32.364Z,2.20
2018-09-29T03:30:01.643Z,2.00
2018-09-29T03:32:30.893Z,2.07
2018-09-29T03:35:00.168Z,2.13
2018-09-29T03:37:29.429Z,1.80
2018-09-29T03:39:58.684Z,2.23
2018-09-29T03:42:28.302Z,1.90
2018-09-29T03:44:57.626Z,1.80
2018-09-29T03:47:26.929Z,1.90
2018-09-29T03:49:56.197Z,2.10
2018-09-29T03:52:25.476Z,1.90
2018-09-29T03:54:54.802Z,2.00
2018-09-29T03:57:24.132Z,1.80
2018-09-29T03:59:53.466Z,2.35
2018-09-29T04:02:22.785Z,2.33
2018-09-29T04:04:52.113Z,1.80
2018-09-29T04:07:21.378Z,1.93
2018-09-29T04:09:50.714Z,2.37
2018-09-29T04:12:20.006Z,2.17
2018-09-29T04:14:49.298Z,2.20
2018-09-29T04:17:18.591Z,2.30
2018-09-29T04:19:47.877Z,2.20
2018-09-29T04:22:17.236Z,2.90
2018-09-29T04:24:46.519Z,2.65
2018-09-29T04:27:15.958Z,2.92
2018-09-29T04:29:45.269Z,3.10
2018-09-29T04:32:14.599Z,3.12
2018-09-29T04:34:43.920Z,3.40
2018-09-29T04:37:13.215Z,3.55
2018-09-29T04:39:42.530Z,3.12
2018-09-29T04:42:11.808Z,3.60
2018-09-29T04:44:41.048Z,3.40
2018-09-29T04:47:10.373Z,2.65
2018-09-29T04:49:39.623Z,2.65
2018-09-29T04:52:08.958Z,3.02
2018-09-29T04:54:38.205Z,7.28
2018-09-29T04:57:07.526Z,21.33
2018-09-29T04:59:36.802Z,10.72
2018-09-29T05:02:06.178Z,6.10
2018-09-29T05:04:35.516Z,3.35
2018-09-29T05:07:04.826Z,3.27
2018-09-29T05:09:34.142Z,2.33
2018-09-29T05:12:03.505Z,2.77
2018-09-29T05:14:32.780Z,3.50
2018-09-29T05:17:02.311Z,2.75
2018-09-29T05:19:31.650Z,2.30
2018-09-29T05:22:01.006Z,2.52
2018-09-29T05:24:30.294Z,3.55
2018-09-29T05:26:59.681Z,4.37
2018-09-29T05:29:29.015Z,3.12
2018-09-29T05:31:58.333Z,3.60
2018-09-29T05:34:27.635Z,3.42
2018-09-29T05:36:56.947Z,4.90
2018-09-29T05:39:26.505Z,3.30
2018-09-29T05:41:55.852Z,2.67
2018-09-29T05:44:25.131Z,3.20
2018-09-29T05:46:54.456Z,2.85
2018-09-29T05:49:23.758Z,2.60
2018-09-29T05:51:53.080Z,2.30
2018-09-29T05:54:22.453Z,3.95
2018-09-29T05:56:51.729Z,5.05
2018-09-29T05:59:21.033Z,3.83
2018-09-29T06:01:50.372Z,3.65
2018-09-29T06:04:19.743Z,2.87
2018-09-29T06:06:49.047Z,3.72
2018-09-29T06:09:18.337Z,2.30
2018-09-29T06:11:47.633Z,2.55
2018-09-29T06:14:16.934Z,3.45
2018-09-29T06:16:46.290Z,2.80
2018-09-29T06:19:15.613Z,3.10
2018-09-29T06:21:44.910Z,2.70
2018-09-29T06:24:14.225Z,2.70
2018-09-29T06:26:43.543Z,2.93
2018-09-29T06:29:12.866Z,2.60
2018-09-29T06:31:42.162Z,2.83
2018-09-29T06:34:11.517Z,2.57
2018-09-29T06:36:40.840Z,3.13
2018-09-29T06:39:11.539Z,2.40
2018-09-29T06:41:40.860Z,2.70
2018-09-29T06:44:10.211Z,2.72
2018-09-29T06:46:39.490Z,3.10
2018-09-29T06:49:08.776Z,2.40
2018-09-29T06:51:38.082Z,3.10
2018-09-29T06:54:07.430Z,2.40
2018-09-29T06:56:36.746Z,2.30
2018-09-29T06:59:06.039Z,2.30
2018-09-29T07:01:35.309Z,2.80
2018-09-29T07:04:04.635Z,2.40
2018-09-29T07:06:33.885Z,2.73
2018-09-29T07:09:03.253Z,2.43
2018-09-29T07:11:32.550Z,4.23
2018-09-29T07:14:01.827Z,2.80
2018-09-29T07:16:31.106Z,3.13
2018-09-29T07:19:00.383Z,3.00
2018-09-29T07:21:29.825Z,2.50
2018-09-29T07:23:59.169Z,2.30
2018-09-29T07:26:28.519Z,1.80
2018-09-29T07:28:57.830Z,2.27
2018-09-29T07:31:27.238Z,2.37
2018-09-29T07:33:56.474Z,2.57
2018-09-29T07:36:25.793Z,2.57
2018-09-29T07:38:55.053Z,2.43
2018-09-29T07:41:24.384Z,4.27
2018-09-29T07:43:53.710Z,2.50
2018-09-29T07:46:23.073Z,2.33
2018-09-29T07:48:52.414Z,2.70
2018-09-29T07:51:21.785Z,2.70
2018-09-29T07:53:51.097Z,2.50
2018-09-29T07:56:20.534Z,2.23
2018-09-29T07:58:49.933Z,2.20
2018-09-29T08:01:19.297Z,2.07
2018-09-29T08:03:48.643Z,2.40
2018-09-29T08:06:18.109Z,2.53
2018-09-29T08:08:47.419Z,1.60
2018-09-29T08:11:16.787Z,1.83
2018-09-29T08:13:46.080Z,1.93
2018-09-29T08:16:15.421Z,2.30
2018-09-29T08:18:44.773Z,1.60
2018-09-29T08:21:14.152Z,2.20
2018-09-29T08:23:43.416Z,1.70
2018-09-29T08:26:12.825Z,1.90
2018-09-29T08:28:42.073Z,1.90
2018-09-29T08:31:11.354Z,1.70
2018-09-29T08:33:40.655Z,1.60
2018-09-29T08:36:09.950Z,1.60
2018-09-29T08:38:39.246Z,1.67
2018-09-29T08:41:09.433Z,1.80
2018-09-29T08:43:38.751Z,1.50
2018-09-29T08:46:08.130Z,1.80
2018-09-29T08:48:37.454Z,1.70
2018-09-29T08:51:07.180Z,1.83
2018-09-29T08:53:36.987Z,1.47
2018-09-29T08:56:06.322Z,1.50
2018-09-29T08:58:35.617Z,1.20
2018-09-29T09:01:04.913Z,1.43
2018-09-29T09:03:34.958Z,1.77
2018-09-29T09:06:04.235Z,1.50
2018-09-29T09:08:33.518Z,1.90
2018-09-29T09:11:02.801Z,1.43
2018-09-29T09:13:32.154Z,1.60
2018-09-29T09:16:01.500Z,1.50
2018-09-29T09:18:30.881Z,1.97
2018-09-29T09:21:00.176Z,1.20
2018-09-29T09:23:29.521Z,1.40
2018-09-29T09:25:58.790Z,1.20
2018-09-29T09:28:28.072Z,1.63
2018-09-29T09:30:57.359Z,1.40
2018-09-29T09:33:26.670Z,1.33
2018-09-29T09:35:55.941Z,1.27
2018-09-29T09:38:25.221Z,1.30
2018-09-29T09:40:54.501Z,1.40
2018-09-29T09:43:23.851Z,1.27
2018-09-29T09:45:53.202Z,1.90
2018-09-29T09:48:22.477Z,1.10
2018-09-29T09:50:51.822Z,1.33
2018-09-29T09:53:21.094Z,1.60
2018-09-29T09:55:50.684Z,1.20
2018-09-29T09:58:19.965Z,1.23
2018-09-29T10:00:54.605Z,1.20
2018-09-29T10:03:27.254Z,1.33
2018-09-29T10:05:56.627Z,1.27
2018-09-29T10:08:25.931Z,1.30
2018-09-29T10:10:56.472Z,1.17
2018-09-29T10:13:25.804Z,1.30
2018-09-29T10:15:55.174Z,1.10
2018-09-29T10:18:24.445Z,1.10
2018-09-29T10:20:53.783Z,1.07
2018-09-29T10:23:23.085Z,1.40
2018-09-29T10:25:52.561Z,1.53
2018-09-29T10:28:21.848Z,1.53
2018-09-29T10:30:51.249Z,1.30
2018-09-29T10:33:20.573Z,1.20
2018-09-29T10:35:49.899Z,1.30
2018-09-29T10:38:19.229Z,1.17
2018-09-29T10:40:48.557Z,1.30
2018-09-29T10:43:17.877Z,1.10
2018-09-29T10:45:47.196Z,1.10
2018-09-29T10:48:16.460Z,1.20
2018-09-29T10:50:45.790Z,1.20
2018-09-29T10:53:15.063Z,1.10
2018-09-29T10:55:44.422Z,1.00
2018-09-29T10:58:13.721Z,1.10
2018-09-29T11:00:43.089Z,0.97
2018-09-29T11:03:12.356Z,1.20
2018-09-29T11:05:41.710Z,1.13
2018-09-29T11:08:10.952Z,1.10
2018-09-29T11:10:40.282Z,1.10
2018-09-29T11:13:09.582Z,1.20
2018-09-29T11:15:38.889Z,1.13
2018-09-29T11:18:08.155Z,1.20
2018-09-29T11:20:37.454Z,1.20
2018-09-29T11:23:06.770Z,1.23
2018-09-29T11:25:36.087Z,1.30
2018-09-29T11:28:05.429Z,1.10
2018-09-29T11:30:34.713Z,1.20
2018-09-29T11:33:04.039Z,1.43
2018-09-29T11:35:33.339Z,1.10
2018-09-29T11:38:02.609Z,1.07
2018-09-29T11:40:31.941Z,1.00
2018-09-29T11:43:01.216Z,1.00
2018-09-29T11:45:30.521Z,1.30
2018-09-29T11:47:59.818Z,1.10
2018-09-29T11:50:29.127Z,1.10
2018-09-29T11:52:58.637Z,1.20
2018-09-29T11:55:27.922Z,1.13
2018-09-29T11:57:57.228Z,1.10
2018-09-29T12:00:26.513Z,1.13
2018-09-29T12:02:55.809Z,1.13
2018-09-29T12:05:25.097Z,1.20
2018-09-29T12:07:54.456Z,1.13
2018-09-29T12:10:23.751Z,1.43
2018-09-29T12:12:53.062Z,1.20
2018-09-29T12:15:22.369Z,1.00
2018-09-29T12:17:51.725Z,1.20
2018-09-29T12:20:21.021Z,1.40
2018-09-29T12:22:50.305Z,1.20
2018-09-29T12:25:19.639Z,1.00
2018-09-29T12:27:48.904Z,1.20
2018-09-29T12:30:18.213Z,1.10
2018-09-29T12:32:47.491Z,1.27
2018-09-29T12:35:16.804Z,1.20
2018-09-29T12:37:46.157Z,1.20
2018-09-29T12:40:15.398Z,1.20
2018-09-29T12:42:44.709Z,1.00
2018-09-29T12:45:13.995Z,1.17
2018-09-29T12:47:43.360Z,1.00
2018-09-29T12:50:12.670Z,1.10
2018-09-29T12:52:41.920Z,1.40
2018-09-29T12:55:11.207Z,1.00
2018-09-29T12:57:40.498Z,1.10
2018-09-29T13:00:09.785Z,1.10
2018-09-29T13:02:39.078Z,0.90
2018-09-29T13:05:08.439Z,1.40
2018-09-29T13:07:37.737Z,1.10
2018-09-29T13:10:07.017Z,0.97
2018-09-29T13:12:36.321Z,1.50
2018-09-29T13:15:05.846Z,0.97
2018-09-29T13:17:35.132Z,1.10
2018-09-29T13:20:04.553Z,1.10
2018-09-29T13:22:33.883Z,1.10
2018-09-29T13:25:03.206Z,1.10
2018-09-29T13:27:32.537Z,1.10
2018-09-29T13:30:01.796Z,1.23
2018-09-29T13:32:31.121Z,1.30
2018-09-29T13:35:00.402Z,1.20
2018-09-29T13:37:29.711Z,0.87
2018-09-29T13:39:59.026Z,1.00
2018-09-29T13:42:28.321Z,1.00
2018-09-29T13:44:57.579Z,1.63
2018-09-29T13:47:26.907Z,1.33
2018-09-29T13:49:56.181Z,1.77
2018-09-29T13:52:25.461Z,1.10
2018-09-29T13:54:54.730Z,1.40
2018-09-29T13:57:24.013Z,1.30
2018-09-29T13:59:53.310Z,1.60
2018-09-29T14:02:22.638Z,18.43
2018-09-29T14:04:51.945Z,3.13
2018-09-29T14:07:21.365Z,2.57
2018-09-29T14:09:50.695Z,1.17
2018-09-29T14:12:20.032Z,1.50
2018-09-29T14:14:49.332Z,2.03
2018-09-29T14:17:18.666Z,1.27
2018-09-29T14:19:48.015Z,1.17
2018-09-29T14:22:17.334Z,1.10
2018-09-29T14:24:46.628Z,1.50
2018-09-29T14:27:15.949Z,1.07
2018-09-29T14:29:45.236Z,1.30
2018-09-29T14:32:14.606Z,2.40
2018-09-29T14:34:43.905Z,1.07
2018-09-29T14:37:13.226Z,1.10
2018-09-29T14:39:42.518Z,1.03
2018-09-29T14:42:11.854Z,1.30
2018-09-29T14:44:41.182Z,1.20
2018-09-29T14:47:10.509Z,1.10
2018-09-29T14:49:39.778Z,1.20
2018-09-29T14:52:09.077Z,1.20
2018-09-29T14:54:38.366Z,0.93
2018-09-29T14:57:07.632Z,1.13
2018-09-29T14:59:36.964Z,1.43
2018-09-29T15:02:06.233Z,1.43
2018-09-29T15:04:35.665Z,1.30
2018-09-29T15:07:04.941Z,1.50
2018-09-29T15:09:34.239Z,1.50
2018-09-29T15:12:03.505Z,1.20
2018-09-29T15:14:32.861Z,1.20
2018-09-29T15:17:02.114Z,2.50
2018-09-29T15:19:31.467Z,1.90
2018-09-29T15:22:00.798Z,1.50
2018-09-29T15:24:30.102Z,1.20
2018-09-29T15:26:59.521Z,1.20
2018-09-29T15:29:28.828Z,1.30
2018-09-29T15:31:58.120Z,1.57
2018-09-29T15:34:27.392Z,1.30
2018-09-29T15:36:56.738Z,1.10
2018-09-29T15:39:25.975Z,1.13
2018-09-29T15:41:55.273Z,1.10
2018-09-29T15:44:24.557Z,1.50
2018-09-29T15:46:53.983Z,1.50
2018-09-29T15:49:23.329Z,1.40
2018-09-29T15:51:52.720Z,1.37
2018-09-29T15:54:22.129Z,1.30
2018-09-29T15:56:51.450Z,1.20
2018-09-29T15:59:20.771Z,1.00
2018-09-29T16:01:50.101Z,1.43
2018-09-29T16:04:19.494Z,2.17
2018-09-29T16:06:48.829Z,2.50
2018-09-29T16:09:18.139Z,1.30
2018-09-29T16:11:47.506Z,1.20
2018-09-29T16:14:16.823Z,1.37
2018-09-29T16:16:46.318Z,1.40
2018-09-29T16:19:15.645Z,1.50
2018-09-29T16:21:45.182Z,1.40
2018-09-29T16:24:14.566Z,1.30
2018-09-29T16:26:43.886Z,1.80
2018-09-29T16:29:13.212Z,1.23
2018-09-29T16:31:42.528Z,1.53
2018-09-29T16:34:11.780Z,1.27
2018-09-29T16:36:41.098Z,1.30
2018-09-29T16:39:12.250Z,1.63
2018-09-29T16:41:41.890Z,1.23
2018-09-29T16:44:11.146Z,1.53
2018-09-29T16:46:40.446Z,1.27
2018-09-29T16:49:09.702Z,1.53
2018-09-29T16:51:39.021Z,1.60
2018-09-29T16:54:08.309Z,1.47
2018-09-29T16:56:37.590Z,1.83
2018-09-29T16:59:06.855Z,1.90
2018-09-29T17:01:36.203Z,2.07
2018-09-29T17:04:05.524Z,1.90
2018-09-29T17:06:34.842Z,1.60
2018-09-29T17:09:05.653Z,1.33
2018-09-29T17:11:34.954Z,1.50
2018-09-29T17:14:04.218Z,1.97
2018-09-29T17:16:33.570Z,1.90
2018-09-29T17:19:02.814Z,1.90
2018-09-29T17:21:32.225Z,1.87
2018-09-29T17:24:01.500Z,2.10
2018-09-29T17:26:30.922Z,2.23
2018-09-29T17:29:00.258Z,2.47
2018-09-29T17:31:29.593Z,2.60
2018-09-29T17:33:58.898Z,2.77
2018-09-29T17:36:28.667Z,3.17
2018-09-29T17:38:57.956Z,3.50
2018-09-29T17:41:27.230Z,6.23
2018-09-29T17:43:56.615Z,7.50
2018-09-29T17:46:25.949Z,6.27
2018-09-29T17:48:55.295Z,5.60
2018-09-29T17:51:24.748Z,4.30
2018-09-29T17:53:54.078Z,4.13
2018-09-29T17:56:23.339Z,4.27
2018-09-29T17:58:52.735Z,4.23
2018-09-29T18:01:22.030Z,4.47
2018-09-29T18:03:51.408Z,4.20
2018-09-29T18:06:20.765Z,4.53
2018-09-29T18:08:50.109Z,4.67
2018-09-29T18:11:19.444Z,5.47
2018-09-29T18:13:48.747Z,4.97
2018-09-29T18:16:18.093Z,4.57
2018-09-29T18:18:47.458Z,5.47
2018-09-29T18:21:16.746Z,4.70
2018-09-29T18:23:46.118Z,5.77
2018-09-29T18:26:15.415Z,6.20
2018-09-29T18:28:44.745Z,6.80
2018-09-29T18:31:14.007Z,6.10
2018-09-29T18:33:43.346Z,5.93
2018-09-29T18:36:12.817Z,5.30
2018-09-29T18:38:42.176Z,3.53
2018-09-29T18:41:11.525Z,3.63
2018-09-29T18:43:40.821Z,3.73
2018-09-29T18:46:10.171Z,4.10
2018-09-29T18:48:39.446Z,4.30
2018-09-29T18:51:08.917Z,4.37
2018-09-29T18:53:38.264Z,3.03
2018-09-29T18:56:07.582Z,3.13
2018-09-29T18:58:36.853Z,2.50
2018-09-29T19:01:06.145Z,2.90
2018-09-29T19:03:35.464Z,3.10
2018-09-29T19:06:04.986Z,4.13
2018-09-29T19:08:34.251Z,4.27
2018-09-29T19:11:03.558Z,4.90
2018-09-29T19:13:32.857Z,4.00
2018-09-29T19:16:02.184Z,4.10
2018-09-29T19:18:31.522Z,3.93
2018-09-29T19:21:00.819Z,3.47
2018-09-29T19:23:30.089Z,3.10
2018-09-29T19:25:59.439Z,3.70
2018-09-29T19:28:28.773Z,2.97
2018-09-29T19:30:58.094Z,3.00
2018-09-29T19:33:27.353Z,3.40
2018-09-29T19:35:56.702Z,4.00
2018-09-29T19:38:25.978Z,4.00
2018-09-29T19:40:55.335Z,3.57
2018-09-29T19:43:24.599Z,3.47
2018-09-29T19:45:53.887Z,3.03
2018-09-29T19:48:23.146Z,3.43
2018-09-29T19:50:52.433Z,3.60
2018-09-29T19:53:21.701Z,4.10
2018-09-29T19:55:51.035Z,4.00
2018-09-29T19:58:20.287Z,4.23
2018-09-29T20:00:49.604Z,3.30
2018-09-29T20:03:18.989Z,3.67
2018-09-29T20:05:48.492Z,2.87
2018-09-29T20:08:17.762Z,3.70
2018-09-29T20:10:47.155Z,9.33
2018-09-29T20:13:16.471Z,11.10
2018-09-29T20:15:45.781Z,7.37
2018-09-29T20:18:15.039Z,4.20
2018-09-29T20:20:44.418Z,2.63
2018-09-29T20:23:13.694Z,2.57
2018-09-29T20:25:42.986Z,2.97
2018-09-29T20:28:12.301Z,2.73
2018-09-29T20:30:41.610Z,2.90
2018-09-29T20:33:10.930Z,2.53
2018-09-29T20:35:40.236Z,2.00
2018-09-29T20:38:09.558Z,2.00
2018-09-29T20:40:38.876Z,2.33
2018-09-29T20:43:08.198Z,2.47
2018-09-29T20:45:37.493Z,4.37
2018-09-29T20:48:06.839Z,3.13
2018-09-29T20:50:36.119Z,2.80
2018-09-29T20:53:05.410Z,2.70
2018-09-29T20:55:34.668Z,2.50
2018-09-29T20:58:03.962Z,2.70
2018-09-29T21:00:33.292Z,2.83
2018-09-29T21:03:02.606Z,2.10
2018-09-29T21:05:31.906Z,2.40
2018-09-29T21:08:01.183Z,2.37
2018-09-29T21:10:30.457Z,2.30
2018-09-29T21:12:59.836Z,2.80
2018-09-29T21:15:29.067Z,2.50
2018-09-29T21:17:58.357Z,2.53
2018-09-29T21:20:27.686Z,2.40
2018-09-29T21:22:56.997Z,2.33
2018-09-29T21:25:26.318Z,2.43
2018-09-29T21:27:55.647Z,2.90
2018-09-29T21:30:24.959Z,2.37
2018-09-29T21:32:54.253Z,3.47
2018-09-29T21:35:23.590Z,3.53
2018-09-29T21:37:52.842Z,2.50
2018-09-29T21:40:22.171Z,2.70
2018-09-29T21:42:51.501Z,2.50
2018-09-29T21:45:20.857Z,3.30
2018-09-29T21:47:50.182Z,3.80
2018-09-29T21:50:19.569Z,3.30
2018-09-29T21:52:48.875Z,3.40
2018-09-29T21:55:18.163Z,2.80
2018-09-29T21:57:47.444Z,3.00
2018-09-29T22:00:20.900Z,2.90
2018-09-29T22:02:50.231Z,2.70
2018-09-29T22:05:19.584Z,3.57
2018-09-29T22:07:48.989Z,3.13
2018-09-29T22:10:18.325Z,5.90
2018-09-29T22:12:47.604Z,7.37
2018-09-29T22:15:16.925Z,2.73
2018-09-29T22:17:46.225Z,2.43
2018-09-29T22:20:15.560Z,2.63
2018-09-29T22:22:44.860Z,3.37
2018-09-29T22:25:14.239Z,3.90
2018-09-29T22:27:43.698Z,3.47
2018-09-29T22:30:13.086Z,3.80
2018-09-29T22:32:42.423Z,3.20
2018-09-29T22:35:11.763Z,3.60
2018-09-29T22:37:41.049Z,4.43
2018-09-29T22:40:10.355Z,3.60
2018-09-29T22:42:39.738Z,3.73
2018-09-29T22:45:09.098Z,3.93
2018-09-29T22:47:38.393Z,3.53
2018-09-29T22:50:07.689Z,3.60
2018-09-29T22:52:36.990Z,3.97
2018-09-29T22:55:06.304Z,3.57
2018-09-29T22:57:35.701Z,3.17
2018-09-29T23:00:04.967Z,3.53
2018-09-29T23:02:34.296Z,3.43
2018-09-29T23:05:03.623Z,3.43
2018-09-29T23:07:33.054Z,3.40
2018-09-29T23:10:02.345Z,3.50
2018-09-29T23:12:31.687Z,2.93
2018-09-29T23:15:00.983Z,3.10
2018-09-29T23:17:32.248Z,3.23
2018-09-29T23:20:03.115Z,3.40
2018-09-29T23:22:33.981Z,2.70
2018-09-29T23:25:04.791Z,3.40
2018-09-29T23:27:34.213Z,4.70
2018-09-29T23:30:03.537Z,3.70
2018-09-29T23:32:32.847Z,3.50
2018-09-29T23:35:02.210Z,3.60
2018-09-29T23:37:31.507Z,3.37
2018-09-29T23:40:00.880Z,3.60
2018-09-29T23:42:30.246Z,3.13
2018-09-29T23:44:59.496Z,3.20
2018-09-29T23:47:28.811Z,3.15
2018-09-29T23:49:58.084Z,3.05
2018-09-29T23:52:27.397Z,2.92
2018-09-29T23:54:56.648Z,3.20
2018-09-29T23:57:25.982Z,4.10
2018-09-29T23:59:55.222Z,3.50
